| time (UTC) | temp C | wind direction | speed KPH | gust KPH | rain 1hr cm | rain 24hr cm | rain mn cm | humidity % | barometer mb |
| 20260906071557 | 21 | 0 | 0.0 | 1.6 | 0.00 | 0.33 | 0.00 | 93 | 1016.7 |
| 20260906070051 | 21 | 0 | 0.0 | 1.6 | 0.00 | 0.33 | 0.00 | 94 | 1016.7 |
| 20260906064556 | 21 | 320 | 0.0 | 1.6 | 0.00 | 0.33 | 0.00 | 94 | 1016.7 |
| 20260906063055 | 21 | 302 | 0.0 | 1.6 | 0.00 | 0.33 | 0.00 | 94 | 1016.8 |
| 20260906061558 | 21 | 302 | 0.0 | 1.6 | 0.00 | 0.33 | 0.00 | 95 | 1017.0 |
| 20260906060052 | 21 | 0 | 0.0 | 0.0 | 0.00 | 0.33 | 0.00 | 93 | 1017.1 |
| 20260906054606 | 21 | 0 | 0.0 | 0.0 | 0.00 | 0.33 | 0.00 | 93 | 1017.4 |
| 20260906053054 | 21 | 0 | 0.0 | 0.0 | 0.00 | 0.33 | 0.00 | 92 | 1017.2 |
| 20260906051557 | 21 | 0 | 0.0 | 1.6 | 0.00 | 0.33 | 0.00 | 92 | 1017.5 |
| 20260906050120 | 22 | 96 | 0.0 | 0.0 | 0.00 | 0.33 | 0.00 | 90 | 1017.5 |
| 20260906044553 | 22 | 0 | 0.0 | 1.6 | 0.00 | 0.33 | 0.00 | 89 | 1017.3 |
| 20260906043100 | 22 | 0 | 0.0 | 1.6 | 0.00 | 0.33 | 0.00 | 90 | 1017.2 |
| 20260906041555 | 22 | 0 | 0.0 | 1.6 | 0.00 | 0.33 | 0.00 | 90 | 1017.2 |
| 20260906040113 | 22 | 0 | 0.0 | 0.0 | 0.00 | 0.33 | 0.00 | 90 | 1017.2 |
| 20260906034551 | 23 | 0 | 0.0 | 0.0 | 0.00 | 0.33 | 0.33 | 86 | 1017.5 |
| 20260906033100 | 22 | 0 | 0.0 | 0.0 | 0.00 | 0.33 | 0.33 | 86 | 1017.5 |
| 20260906031554 | 22 | 0 | 0.0 | 0.0 | 0.00 | 0.33 | 0.33 | 90 | 1017.8 |
| 20260906030055 | 22 | 0 | 0.0 | 0.0 | 0.00 | 0.33 | 0.33 | 90 | 1017.9 |
| 20260906024555 | 22 | 0 | 0.0 | 0.0 | 0.00 | 0.33 | 0.33 | 90 | 1017.7 |
| 20260906023057 | 22 | 0 | 0.0 | 0.0 | 0.00 | 0.33 | 0.33 | 90 | 1017.6 |
| 20260906021556 | 22 | 0 | 0.0 | 0.0 | 0.00 | 0.33 | 0.33 | 88 | 1017.7 |
| 20260906020055 | 23 | 0 | 0.0 | 6.4 | 0.00 | 0.33 | 0.33 | 87 | 1017.5 |
| 20260906014607 | 23 | 0 | 0.0 | 0.0 | 0.00 | 0.33 | 0.33 | 83 | 1017.5 |
| 20260906013053 | 23 | 0 | 0.0 | 0.0 | 0.00 | 0.33 | 0.33 | 86 | 1017.3 |
| 20260906011557 | 23 | 0 | 0.0 | 0.0 | 0.00 | 0.33 | 0.33 | 86 | 1017.2 |
| 20260906010051 | 23 | 93 | 1.6 | 3.2 | 0.00 | 0.33 | 0.33 | 85 | 1017.1 |
| 20260906004556 | 23 | 0 | 0.0 | 0.0 | 0.00 | 0.33 | 0.33 | 83 | 1016.9 |
| 20260906003057 | 24 | 0 | 0.0 | 0.0 | 0.00 | 0.33 | 0.33 | 81 | 1016.9 |
| 20260906001554 | 25 | 0 | 0.0 | 1.6 | 0.00 | 0.33 | 0.33 | 80 | 1016.7 |
| 20260905234611 | 26 | 0 | 0.0 | 1.6 | 0.00 | 0.33 | 0.33 | 75 | 1016.7 |
| 20260905233054 | 28 | 0 | 0.0 | 0.0 | 0.00 | 0.33 | 0.33 | 69 | 1016.7 |
| 20260905231629 | 30 | 0 | 0.0 | 1.6 | 0.00 | 0.33 | 0.33 | 67 | 1016.8 |
| 20260905230117 | 28 | 73 | 1.6 | 4.8 | 0.00 | 0.33 | 0.33 | 68 | 1016.8 |
| 20260905224556 | 29 | 37 | 1.6 | 6.4 | 0.00 | 0.33 | 0.33 | 66 | 1016.9 |
| 20260905223054 | 30 | 35 | 1.6 | 9.7 | 0.00 | 0.33 | 0.33 | 66 | 1017.1 |
| 20260905221557 | 30 | 6 | 4.8 | 11.3 | 0.00 | 0.33 | 0.33 | 65 | 1017.1 |
| 20260905220059 | 30 | 20 | 4.8 | 9.7 | 0.00 | 0.33 | 0.33 | 66 | 1017.0 |
| 20260905214556 | 29 | 349 | 4.8 | 11.3 | 0.00 | 0.33 | 0.33 | 66 | 1017.1 |
| 20260905213052 | 28 | 340 | 4.8 | 9.7 | 0.00 | 0.33 | 0.33 | 67 | 1017.1 |
| 20260905211601 | 28 | 302 | 3.2 | 11.3 | 0.00 | 0.33 | 0.33 | 70 | 1017.0 |
| 20260905210052 | 28 | 337 | 6.4 | 11.3 | 0.00 | 0.33 | 0.33 | 69 | 1017.1 |
| 20260905204550 | 28 | 339 | 6.4 | 11.3 | 0.00 | 0.33 | 0.33 | 69 | 1017.1 |
| 20260905203101 | 27 | 347 | 4.8 | 9.7 | 0.00 | 0.33 | 0.33 | 70 | 1017.3 |
| 20260905201555 | 27 | 307 | 8.0 | 14.5 | 0.00 | 0.33 | 0.33 | 73 | 1017.0 |
| 20260905200104 | 27 | 342 | 4.8 | 12.9 | 0.00 | 0.33 | 0.33 | 73 | 1017.3 |
| 20260905194549 | 27 | 265 | 1.6 | 11.3 | 0.00 | 0.33 | 0.33 | 72 | 1017.4 |
| 20260905193109 | 26 | 0 | 1.6 | 6.4 | 0.00 | 0.33 | 0.33 | 74 | 1017.8 |
| 20260905191554 | 26 | 40 | 3.2 | 6.4 | 0.00 | 0.33 | 0.33 | 74 | 1018.0 |
| 20260905190052 | 26 | 29 | 0.0 | 4.8 | 0.00 | 0.33 | 0.33 | 80 | 1018.3 |
| 20260905184554 | 25 | 319 | 1.6 | 8.0 | 0.00 | 0.33 | 0.33 | 85 | 1018.5 |
| 20260905183059 | 23 | 319 | 1.6 | 8.0 | 0.00 | 0.33 | 0.33 | 88 | 1018.8 |
| 20260905181558 | 22 | 347 | 1.6 | 11.3 | 0.00 | 0.33 | 0.33 | 91 | 1019.2 |
| 20260905180053 | 21 | 285 | 4.8 | 14.5 | 0.00 | 0.33 | 0.33 | 95 | 1019.4 |
| 20260905174548 | 21 | 309 | 0.0 | 6.4 | 0.00 | 0.33 | 0.33 | 96 | 1020.0 |
| 20260905173057 | 20 | 0 | 1.6 | 4.8 | 0.00 | 0.33 | 0.33 | 96 | 1020.3 |
| 20260905171559 | 20 | 0 | 0.0 | 4.8 | 0.23 | 0.33 | 0.33 | 96 | 1020.6 |
| 20260905170051 | 20 | 35 | 0.0 | 1.6 | 0.33 | 0.33 | 0.33 | 95 | 1020.5 |
| 20260905164558 | 20 | 169 | 0.0 | 3.2 | 0.33 | 0.33 | 0.33 | 95 | 1020.3 |
| 20260905163057 | 20 | 0 | 3.2 | 14.5 | 0.33 | 0.33 | 0.33 | 93 | 1020.6 |
| 20260905161551 | 22 | 58 | 14.5 | 35.4 | 0.10 | 0.10 | 0.10 | 89 | 1021.1 |
| 20260905160059 | 28 | 129 | 9.7 | 16.1 | 0.00 | 0.00 | 0.00 | 73 | 1020.4 |
| 20260905154604 | 29 | 16 | 1.6 | 6.4 | 0.00 | 0.00 | 0.00 | 70 | 1019.8 |
| 20260905153052 | 29 | 335 | 4.8 | 9.7 | 0.00 | 0.00 | 0.00 | 69 | 1020.0 |
| 20260905151552 | 28 | 1 | 6.4 | 11.3 | 0.00 | 0.00 | 0.00 | 70 | 1019.7 |
| 20260905150112 | 28 | 341 | 4.8 | 11.3 | 0.00 | 0.00 | 0.00 | 75 | 1019.6 |
| 20260905144554 | 28 | 321 | 3.2 | 9.7 | 0.00 | 0.00 | 0.00 | 74 | 1019.4 |
| 20260905143052 | 27 | 303 | 4.8 | 9.7 | 0.00 | 0.00 | 0.00 | 78 | 1019.5 |
| 20260905141551 | 27 | 0 | 0.0 | 6.4 | 0.00 | 0.00 | 0.00 | 81 | 1019.3 |
| 20260905140100 | 26 | 0 | 0.0 | 8.0 | 0.00 | 0.00 | 0.00 | 85 | 1019.7 |
| 20260905134554 | 25 | 0 | 0.0 | 4.8 | 0.00 | 0.00 | 0.00 | 88 | 1019.6 |
| 20260905133051 | 24 | 0 | 0.0 | 3.2 | 0.00 | 0.00 | 0.00 | 89 | 1019.6 |
| 20260905131547 | 23 | 317 | 0.0 | 3.2 | 0.00 | 0.00 | 0.00 | 91 | 1019.7 |
| 20260905130057 | 22 | 345 | 0.0 | 3.2 | 0.00 | 0.00 | 0.00 | 94 | 1019.9 |
| 20260905124558 | 22 | 309 | 1.6 | 3.2 | 0.00 | 0.00 | 0.00 | 96 | 1019.7 |
| 20260905123052 | 21 | 0 | 0.0 | 1.6 | 0.00 | 0.00 | 0.00 | 97 | 1019.8 |
| 20260905121601 | 21 | 0 | 0.0 | 0.0 | 0.00 | 0.00 | 0.00 | 97 | 1019.7 |
| 20260905120053 | 21 | 0 | 0.0 | 1.6 | 0.00 | 0.00 | 0.00 | 97 | 1019.6 |
| 20260905114558 | 21 | 0 | 0.0 | 3.2 | 0.00 | 0.00 | 0.00 | 97 | 1019.5 |
| 20260905113104 | 21 | 106 | 1.6 | 3.2 | 0.00 | 0.00 | 0.00 | 97 | 1019.4 |
| 20260905111552 | 21 | 0 | 0.0 | 3.2 | 0.00 | 0.00 | 0.00 | 96 | 1019.2 |
| 20260905110050 | 21 | 0 | 0.0 | 3.2 | 0.00 | 0.00 | 0.00 | 96 | 1018.8 |
| 20260905104557 | 21 | 110 | 0.0 | 3.2 | 0.00 | 0.00 | 0.00 | 96 | 1018.9 |
| 20260905103052 | 21 | 0 | 0.0 | 3.2 | 0.00 | 0.00 | 0.00 | 96 | 1018.8 |
| 20260905101552 | 21 | 0 | 0.0 | 3.2 | 0.00 | 0.00 | 0.00 | 95 | 1018.7 |
| 20260905100105 | 21 | 117 | 1.6 | 1.6 | 0.00 | 0.00 | 0.00 | 96 | 1018.6 |
| 20260905094555 | 21 | 117 | 1.6 | 1.6 | 0.00 | 0.00 | 0.00 | 95 | 1018.5 |
| 20260905093056 | 21 | 124 | 1.6 | 3.2 | 0.00 | 0.00 | 0.00 | 94 | 1018.6 |
| 20260905091601 | 21 | 0 | 0.0 | 1.6 | 0.00 | 0.00 | 0.00 | 94 | 1018.4 |
| 20260905084557 | 21 | 0 | 0.0 | 0.0 | 0.00 | 0.00 | 0.00 | 94 | 1018.5 |
| 20260905083054 | 21 | 0 | 0.0 | 0.0 | 0.00 | 0.00 | 0.00 | 93 | 1018.5 |
| 20260905081603 | 21 | 0 | 0.0 | 0.0 | 0.00 | 0.00 | 0.00 | 94 | 1018.4 |
| 20260905080053 | 21 | 0 | 0.0 | 0.0 | 0.00 | 0.00 | 0.00 | 93 | 1018.7 |
| 20260905074553 | 21 | 0 | 0.0 | 0.0 | 0.00 | 0.00 | 0.00 | 93 | 1019.0 |
| 20260905073103 | 21 | 0 | 0.0 | 0.0 | 0.00 | 0.00 | 0.00 | 93 | 1018.9 |